Weather reports worldwide

Advertisment
Matera, Italy (16314): temperature & dewpoint: 18.04.2018 06:00:00 - 24.04.2018 06:00:00 (CEST)Matera, Italy (16314): wind speed: 18.04.2018 06:00:00 - 24.04.2018 06:00:00 (CEST)Matera, Italy (16314): wind direction: 18.04.2018 06:00:00 - 24.04.2018 06:00:00 (CEST)Matera, Italy (16314): reduced air pressure: 18.04.2018 06:00:00 - 24.04.2018 06:00:00 (CEST)Matera, Italy (16314): precipitation: 18.04.2018 06:00:00 - 24.04.2018 06:00:00 (CEST)
Date & Time tt [°C] td [°C] ff [km/h] ff [kn] dd ppp [hPa] rr [mm]
24.04.2018 06:00:00 14,5 11,2 13 7 NNE 1019,7 -
24.04.2018 05:00:00 13,9 12,4 11 6 NNE 1019,6 -
24.04.2018 04:00:00 13,2 10,9 15 8 NNE 1019,8 -
24.04.2018 03:00:00 16,4 12,3 21 11 N 1018,9 -
24.04.2018 02:00:00 15,9 10,8 15 8 N 1019,3 0,0
24.04.2018 01:00:00 17,2 9,3 13 7 N 1019,3 -
24.04.2018 00:00:00 15,9 11,0 8 4 NNW 1019,6 -
23.04.2018 23:00:00 15,9 10,0 11 6 WNW 1019,5 -
23.04.2018 22:00:00 16,1 9,5 9 5 W 1019,7 -
23.04.2018 21:00:00 18,1 9,6 5 3 S 1018,9 -
23.04.2018 20:00:00 19,6 10,5 4 2 E 1018,0 0,0
23.04.2018 19:00:00 20,4 11,5 8 4 E 1017,8 -
23.04.2018 18:00:00 21,8 11,2 9 5 E 1017,4 -
23.04.2018 17:00:00 23,0 11,7 11 6 E 1017,0 -
23.04.2018 16:00:00 24,1 9,6 13 7 NNE 1016,9 -
23.04.2018 15:00:00 23,6 12,2 18 10 NE 1017,5 -
23.04.2018 14:00:00 22,5 10,6 4 2 NE 1018,1 0,0
23.04.2018 13:00:00 22,1 11,1 8 4 NE 1018,4 -
23.04.2018 12:00:00 21,8 10,9 13 7 NE 1018,9 -
23.04.2018 11:00:00 20,5 12,7 5 3 NNE 1019,2 -
23.04.2018 10:00:00 18,1 12,9 15 8 NNE 1019,7 -
23.04.2018 09:00:00 17,0 12,9 16 9 NNE 1019,7 -
23.04.2018 08:00:00 14,8 12,8 11 6 NNE 1019,9 0,0
23.04.2018 07:00:00 13,4 11,9 15 8 NNE 1020,0 -
23.04.2018 06:00:00 12,6 11,2 18 10 N 1019,9 -
23.04.2018 05:00:00 13,5 11,7 13 7 N 1019,8 -
23.04.2018 04:00:00 13,4 10,2 15 8 N 1019,9 -
23.04.2018 03:00:00 15,3 10,4 15 8 N 1019,6 -
23.04.2018 02:00:00 12,9 9,7 9 5 NW 1020,5 0,0
23.04.2018 01:00:00 12,8 8,6 15 8 W 1020,8 -
23.04.2018 00:00:00 12,6 6,6 15 8 W 1020,9 -
22.04.2018 23:00:00 13,4 8,2 13 7 WSW 1020,9 -
22.04.2018 22:00:00 13,3 9,7 13 7 WSW 1021,0 -
22.04.2018 21:00:00 13,3 13,1 11 6 SW 1020,7 -
22.04.2018 20:00:00 14,4 12,4 11 6 SW 1020,2 0,0
22.04.2018 19:00:00 16,8 11,0 13 7 SW 1019,6 -
22.04.2018 18:00:00 18,5 9,2 21 11 SW 1019,2 -
22.04.2018 17:00:00 19,4 8,9 22 12 SSW 1018,9 -
22.04.2018 16:00:00 20,2 8,8 22 12 SSW 1019,0 -
22.04.2018 15:00:00 20,6 8,8 29 16 SW 1019,3 -
22.04.2018 14:00:00 20,2 11,4 18 10 SSW 1019,8 0,0
22.04.2018 13:00:00 19,6 11,8 21 11 SW 1020,1 -
22.04.2018 12:00:00 18,2 13,6 18 10 SW 1020,7 -
22.04.2018 11:00:00 16,9 14,1 18 10 SW 1021,2 -
22.04.2018 10:00:00 14,9 14,8 21 11 WSW 1021,6 -
22.04.2018 09:00:00 13,2 13,1 16 9 WSW 1021,7 -
22.04.2018 08:00:00 12,2 12,2 18 10 WSW 1021,8 0,0
22.04.2018 07:00:00 12,0 12,0 11 6 WSW 1021,5 -
22.04.2018 06:00:00 12,2 12,2 11 6 SW 1021,3 -
22.04.2018 05:00:00 12,2 12,2 9 5 WSW 1021,3 -
22.04.2018 04:00:00 11,9 11,9 8 4 WSW 1021,5 -
22.04.2018 03:00:00 11,2 11,2 4 2 SSW 1022,1 -
22.04.2018 02:00:00 11,7 11,7 8 4 SSW 1022,2 0,0
22.04.2018 01:00:00 11,7 11,7 4 2 W 1022,5 -
22.04.2018 00:00:00 12,0 12,0 2 1 SW 1022,7 -
21.04.2018 23:00:00 13,0 12,9 5 3 SW 1022,5 -
21.04.2018 22:00:00 13,4 13,3 9 5 SW 1022,6 -
21.04.2018 21:00:00 13,8 13,4 15 8 SW 1022,2 -
21.04.2018 20:00:00 14,3 13,8 9 5 SSW 1022,0 0,0
21.04.2018 19:00:00 15,3 13,8 16 9 S 1021,5 -
21.04.2018 18:00:00 16,9 14,7 18 10 S 1021,0 -
21.04.2018 17:00:00 18,6 14,4 29 16 S 1020,8 -
21.04.2018 16:00:00 19,2 14,6 21 11 S 1020,9 -
21.04.2018 15:00:00 19,5 13,3 24 13 S 1021,1 -
21.04.2018 14:00:00 19,7 13,8 21 11 SSE 1021,1 0,0
21.04.2018 13:00:00 20,0 13,8 22 12 SSE 1020,9 -
21.04.2018 12:00:00 20,0 11,2 9 5 ESE 1021,1 -
21.04.2018 11:00:00 18,9 12,1 13 7 ESE 1021,3 -
21.04.2018 10:00:00 17,0 12,1 8 4 NE 1021,2 -
21.04.2018 09:00:00 14,7 10,9 16 9 NE 1021,3 -
21.04.2018 08:00:00 12,6 8,6 21 11 NNE 1021,4 0,0
21.04.2018 07:00:00 11,7 8,3 16 9 NE 1021,1 -
21.04.2018 06:00:00 10,9 7,7 22 12 NNE 1021,0 -
21.04.2018 05:00:00 11,9 7,4 18 10 NNE 1020,8 -
21.04.2018 04:00:00 12,0 7,3 18 10 NNE 1021,1 -
21.04.2018 03:00:00 12,6 7,8 22 12 NNE 1020,8 -
21.04.2018 02:00:00 13,1 7,9 29 16 NNE 1020,7 0,0
21.04.2018 01:00:00 13,5 8,1 26 14 N 1020,8 -
21.04.2018 00:00:00 13,9 8,5 34 18 N 1020,8 -
20.04.2018 23:00:00 14,2 8,5 24 13 N 1020,8 -
20.04.2018 22:00:00 14,6 8,5 22 12 N 1020,9 -
20.04.2018 21:00:00 15,5 8,7 22 12 N 1020,6 -
20.04.2018 20:00:00 16,7 6,4 18 10 NNE 1019,8 0,0
20.04.2018 19:00:00 19,4 7,7 18 10 NE 1019,3 -
20.04.2018 18:00:00 20,7 7,6 24 13 NE 1019,2 -
20.04.2018 17:00:00 21,5 7,6 28 15 ENE 1019,0 -
20.04.2018 16:00:00 21,6 7,7 24 13 NE 1019,4 -
20.04.2018 15:00:00 21,7 7,5 29 16 NE 1020,0 -
20.04.2018 14:00:00 21,5 8,7 34 18 NE 1020,6 0,0
20.04.2018 13:00:00 21,1 9,6 24 13 NE 1021,0 -
20.04.2018 12:00:00 20,4 9,6 29 16 NE 1021,4 -
20.04.2018 11:00:00 19,1 10,1 29 16 NE 1021,9 -
20.04.2018 10:00:00 17,2 11,4 21 11 NNE 1022,1 -
20.04.2018 09:00:00 14,9 9,9 24 13 NNE 1022,4 -
20.04.2018 08:00:00 12,8 8,4 26 14 N 1022,9 0,0
20.04.2018 07:00:00 11,7 7,8 26 14 NNE 1023,3 -
20.04.2018 06:00:00 11,7 7,6 24 13 N 1023,1 -
20.04.2018 05:00:00 11,7 7,8 22 12 N 1023,3 -
20.04.2018 04:00:00 11,3 8,5 22 12 N 1023,7 -
20.04.2018 03:00:00 11,2 8,4 21 11 NNE 1024,2 -
20.04.2018 02:00:00 11,9 8,9 22 12 NNE 1024,5 0,0
20.04.2018 01:00:00 12,4 9,2 26 14 NNE 1024,9 -
20.04.2018 00:00:00 12,1 9,3 16 9 NNE 1025,3 -
19.04.2018 23:00:00 13,2 8,8 18 10 NNE 1025,4 -
19.04.2018 22:00:00 14,0 9,2 18 10 NE 1025,3 -
19.04.2018 21:00:00 14,8 9,8 21 11 NNE 1025,4 -
19.04.2018 20:00:00 15,6 9,9 22 12 NE 1024,9 0,0
19.04.2018 19:00:00 17,3 10,8 22 12 NE 1024,4 -
19.04.2018 18:00:00 18,6 10,9 28 15 NE 1024,6 -
19.04.2018 17:00:00 19,3 10,2 28 15 ENE 1024,5 -
19.04.2018 16:00:00 19,6 11,6 28 15 ENE 1024,6 -
19.04.2018 15:00:00 19,9 11,3 28 15 E 1024,9 -
19.04.2018 14:00:00 20,3 10,9 24 13 ENE 1025,1 0,0
19.04.2018 13:00:00 19,6 11,6 22 12 E 1025,5 -
19.04.2018 12:00:00 19,0 11,7 26 14 E 1026,0 -
19.04.2018 11:00:00 17,6 11,8 21 11 ENE 1026,4 -
19.04.2018 10:00:00 16,3 11,6 34 18 ENE 1026,5 -
19.04.2018 09:00:00 14,6 12,3 24 13 NE 1026,4 -
19.04.2018 08:00:00 12,2 10,4 26 14 NNE 1026,8 0,0
19.04.2018 07:00:00 11,7 10,6 22 12 NNE 1026,8 -
19.04.2018 06:00:00 11,6 10,5 21 11 NNE 1026,4 -
19.04.2018 05:00:00 12,0 10,7 22 12 NNE 1026,4 -
19.04.2018 04:00:00 12,5 10,9 24 13 NNE 1026,2 -
19.04.2018 03:00:00 12,8 11,4 26 14 NNE 1026,1 -
19.04.2018 02:00:00 12,5 11,5 28 15 NNE 1026,4 0,0
19.04.2018 01:00:00 12,6 12,0 22 12 NNE 1026,7 -
19.04.2018 00:00:00 12,9 12,3 24 13 NNE 1026,5 -
18.04.2018 23:00:00 13,8 10,9 21 11 NNE 1026,4 -
18.04.2018 22:00:00 13,9 10,8 28 15 NNE 1026,3 -
18.04.2018 21:00:00 13,9 11,2 22 12 NE 1026,1 -
18.04.2018 20:00:00 14,4 11,0 21 11 NE 1025,7 -
18.04.2018 19:00:00 16,5 11,2 22 12 ENE 1024,8 -
18.04.2018 18:00:00 18,2 11,5 22 12 ENE 1023,9 -
18.04.2018 17:00:00 19,1 11,8 24 13 ENE 1023,6 -
18.04.2018 16:00:00 19,1 11,4 21 11 E 1023,6 -
18.04.2018 15:00:00 19,7 13,1 22 12 ENE 1023,7 -
18.04.2018 14:00:00 19,7 12,8 15 8 NE 1023,8 -
18.04.2018 13:00:00 18,8 12,7 28 15 NE 1024,1 -
18.04.2018 12:00:00 17,4 12,8 29 16 NE 1024,4 -
18.04.2018 11:00:00 16,7 13,9 35 19 NE 1024,3 -
18.04.2018 10:00:00 15,1 15,0 24 13 NNE 1024,1 -
18.04.2018 09:00:00 13,2 13,1 31 17 NNE 1024,3 -
18.04.2018 08:00:00 11,7 11,7 21 11 NNE 1024,3 0,0
18.04.2018 07:00:00 11,0 11,0 26 14 NNE 1024,0 -
18.04.2018 06:00:00 11,0 11,0 22 12 NNE 1023,8 -

tt = temperature
td = dewpoint
ff = wind speed
dd = wind direction
ppp = reduced air pressure
rr = precipitation

Next stations